Southwestern Research Station, Arizona Weather observations

Data are for 10 minute period ending at time listed.
 Day   Time   Solar   Ave.   Ave.  Ave.  Vector  Max.   Baro.   Total    
  of    of     Rad.   Air    Rel.  Wind   Wind   Wind  Press.  Precip.   
Year   Day            Temp.  Hum.  Speed  Dir.   Gust                    
2026   (PST)  Kw/m2    F      %     mph   deg.    mph    mb.     in.     
-------------------------------------------------------------------------
 124   21:00   0.00   55.7    46    0.2   264     2.0   833.1    0.00 
 124   21:10   0.00   54.8    49    0.3   264     3.0   833.2    0.00 
 124   21:20   0.00   54.3    50    0.2   254     1.5   833.2    0.00 
 124   21:30   0.00   54.1    51    0.7   311     3.1   833.1    0.00 
 124   21:40   0.00   54.8    49    0.4   338     5.5   832.6    0.00 
 124   21:50   0.00   54.7    52    0.0    32     0.4   832.7    0.00 
 124   22:00   0.00   55.5    45    0.8   307     4.5   832.6    0.00 
 124   22:10   0.00   57.3    40    2.0   327     5.6   832.8    0.00 
 124   22:20   0.00   58.2    38    1.7   319     4.2   832.5    0.00 
 124   22:30   0.00   58.2    37    0.5   308     3.7   832.5    0.00 
 124   22:40   0.00   57.8    37    1.8   306     8.0   832.7    0.00 
 124   22:50   0.00   58.3    36    1.6   315     7.3   832.5    0.00 
 124   23:00   0.00   59.0    34    2.6   314     9.5   832.5    0.00 
 124   23:10   0.00   58.9    35    2.6   309     8.0   832.3    0.00 
 124   23:20   0.00   59.1    35    3.1   298     9.1   832.4    0.00 
 124   23:30   0.00   59.1    35    3.1   296    14.3   832.4    0.00 
 124   23:40   0.00   59.3    34    4.1   300    11.2   832.4    0.00 
 124   23:50   0.00   59.5    33    4.3   307    11.7   832.4    0.00 
 125    0:00   0.00   59.5    32    4.5   314    14.2   832.4    0.00 
 125    0:10   0.00   59.5    32    3.9   313    12.4   832.4    0.00 
 125    0:20   0.00   59.4    32    4.2   310    12.1   832.2    0.00 
 125    0:30   0.00   59.5    32    3.3   309    10.2   832.2    0.00 
 125    0:40   0.00   59.3    32    2.8   313     9.0   832.1    0.00 
 125    0:50   0.00   59.3    32    3.6   312     9.5   832.1    0.00 
 125    1:00   0.00   58.9    32    3.1   306     8.3   832.2    0.00 
 125    1:10   0.00   58.7    34    1.4   316     5.0   832.2    0.00 
 125    1:20   0.00   58.4    37    2.9   302     8.3   832.1    0.00 
 125    1:30   0.00   58.5    40    3.4   312     9.4   831.7    0.00 
 125    1:40   0.00   58.2    40    3.3   318     8.8   831.6    0.00 
 125    1:50   0.00   58.0    42    1.3   313     5.0   832.0    0.00 
 125    2:00   0.00   58.2    41    3.3   310    10.7   831.9    0.00 
 125    2:10   0.00   58.0    40    2.8   304     9.2   831.8    0.00 
 125    2:20   0.00   57.2    43    3.0   292    11.7   831.8    0.00 
 125    2:30   0.00   56.7    45    1.8   274     8.3   831.7    0.00 
 125    2:40   0.00   56.4    46    1.4   326     6.7   831.5    0.00 
 125    2:50   0.00   56.7    44    2.4   296     9.0   831.4    0.00 
 125    3:00   0.00   57.0    43    2.9   304     9.6   831.3    0.00 
 125    3:10   0.00   56.7    44    2.1   322     5.8   831.2    0.00 
 125    3:20   0.00   56.3    46    1.6   324     5.0   831.3    0.00 
 125    3:30   0.00   56.2    45    2.7   314     8.0   831.3    0.00 
 125    3:40   0.00   56.2    46    1.9   317     5.8   831.3    0.00 
 125    3:50   0.00   55.9    49    0.6   342     3.9   831.3    0.00 
 125    4:00   0.00   55.7    50    1.7   332     4.1   831.2    0.00 
 125    4:10   0.00   55.8    48    0.6   340     3.3   831.1    0.00 
 125    4:20   0.00   56.2    42    1.8   317    10.9   831.0    0.00 
 125    4:30   0.00   57.6    35    1.7   313     4.7   830.7    0.00 
 125    4:40   0.00   57.5    36    0.7   305     4.9   830.3    0.00 
 125    4:50   0.00   56.8    39    0.1   172     1.0   830.2    0.00 
 125    5:00   0.00   55.8    47    0.4   175     2.1   830.2    0.00 
 125    5:10   0.00   55.3    50    0.7   175     3.4   830.1    0.00 
 125    5:20   0.00   54.8    54    1.5   152     4.0   830.4    0.00 
 125    5:30   0.00   51.9    72    1.7   188     6.0   830.4    0.00 
 125    5:40   0.01   53.0    63    1.7   197     7.4   830.4    0.00 
 125    5:50   0.01   53.5    64    1.5   159     6.5   830.4    0.00 
 125    6:00   0.01   51.1    78    0.5    82     4.8   830.4    0.00 
 125    6:10   0.02   50.2    80    0.8   124     4.7   830.6    0.01 
 125    6:20   0.04   50.2    86    1.1   131     5.8   830.5    0.00 
 125    6:30   0.05   49.8    90    1.1   162     3.9   830.6    0.00 
 125    6:40   0.04   49.8    87    0.8   112     3.7   830.6    0.01 
 125    6:50   0.06   50.2    90    1.3   110     8.1   830.5    0.00 
 125    7:00   0.06   50.5    90    0.7   163     6.1   830.6    0.01 
 125    7:10   0.07   50.8    91    0.7    12     4.5   830.9    0.03 
 125    7:20   0.07   50.8    94    0.6   179     3.9   830.9    0.02 
 125    7:30   0.09   50.0    91    1.6   132     5.7   831.0    0.00 
 125    7:40   0.04   50.6    92    1.0    11     4.0   831.2    0.03 
 125    7:50   0.08   50.0    95    1.8   275     8.2   831.0    0.02 
 125    8:00   0.14   50.4    90    3.0   202     9.3   830.9    0.00 
 125    8:10   0.18   51.5    86    3.0   213     9.6   831.1    0.00 
 125    8:20   0.31   52.5    82    3.0   204    12.8   831.0    0.01 
 125    8:30   0.13   53.3    73    4.0   251    14.5   831.1    0.00 
 125    8:40   0.19   53.0    78    2.3   197    11.1   831.0    0.00 
 125    8:50   0.19   52.9    79    1.6   155     7.5   831.1    0.00 
 125    9:00   0.19   53.2    76    2.5   212    11.2   831.2    0.00 
 125    9:10   0.35   54.5    70    3.0   199    18.2   831.2    0.00 
 125    9:20   0.42   56.1    63    4.2   225    12.5   831.7    0.00 
 125    9:30   0.42   56.9    61    3.2   224    12.4   832.0    0.00 
 125    9:40   0.50   57.8    60    2.9   229    11.0   831.8    0.00 
 125    9:50   0.70   59.4    58    2.3   195     7.7   831.9    0.00 
 125   10:00   0.72   61.0    54    3.1   244    11.2   832.1    0.00 
 125   10:10   0.69   60.7    53    3.1   227    12.9   831.9    0.00 
 125   10:20   0.70   60.8    52    3.1   233     9.0   832.0    0.00 
 125   10:30   0.69   61.1    51    4.1   224    12.6   832.1    0.00 
 125   10:40   0.63   61.3    50    4.8   208    16.9   832.0    0.00 
 125   10:50   0.71   61.5    49    3.9   224    14.0   832.1    0.00 
 125   11:00   0.62   62.1    48    3.2   227     9.4   832.1    0.00 
 125   11:10   0.72   62.6    46    3.3   221    17.0   832.1    0.00 
 125   11:20   0.67   63.3    45    3.0   231    13.1   832.0    0.00 
 125   11:30   0.60   63.0    46    3.6   210    14.6   832.0    0.00 
 125   11:40   0.45   62.5    45    2.6   230    11.2   832.1    0.00 
 125   11:50   0.57   62.1    46    2.7   216    10.7   832.0    0.00 
 125   12:00   0.74   63.2    46    3.6   236    14.0   831.8    0.00 
 125   12:10   0.74   63.2    44    4.1   228    10.6   831.8    0.00 
 125   12:20   0.72   62.6    45    3.0   235    12.2   831.6    0.00 
 125   12:30   0.83   64.5    43    3.3   255    12.6   831.4    0.00 
 125   12:40   1.01   66.2    39    2.7   265    11.2   831.4    0.00 
 125   12:50   0.85   66.6    38    2.5   209    13.2   831.2    0.00 
 125   13:00   0.63   66.2    39    4.3   251    13.8   831.0    0.00 
 125   13:10   0.70   65.6    37    4.4   178    14.5   830.9    0.00 
 125   13:20   0.91   66.0    37    5.2   208    17.7   831.0    0.00 
 125   13:30   0.68   65.9    35    3.2   274    10.0   830.9    0.00 
 125   13:40   0.63   65.9    37    4.4   225    13.8   830.8    0.00 
 125   13:50   0.48   66.0    38    2.9   283    10.6   830.7    0.00 
 125   14:00   0.48   64.7    37    4.1   242    12.3   830.6    0.00 
 125   14:10   0.54   66.4    36    4.4   302    15.1   830.4    0.00 
 125   14:20   0.60   66.3    34    4.6   270    13.2   830.2    0.00 
 125   14:30   0.62   67.4    33    5.0   241    12.1   830.2    0.00 
 125   14:40   0.46   66.3    33    4.5   197    13.7   830.1    0.00 
 125   14:50   0.36   65.8    32    3.6   226    11.3   829.9    0.00 
 125   15:00   0.46   65.6    32    2.8   194    10.7   829.7    0.00 
 125   15:10   0.46   66.8    31    3.4   204    13.1   829.7    0.00 
 125   15:20   0.25   66.1    30    4.2   185    11.2   829.6    0.00 
 125   15:30   0.26   66.2    30    3.4   264    16.7   829.6    0.00 
 125   15:40   0.18   66.0    29    2.9   282    11.0   829.3    0.00 
 125   15:50   0.26   65.7    29    3.6   298    12.9   829.4    0.00 
 125   16:00   0.28   66.5    28    2.2   288    12.2   829.1    0.00 
 125   16:10   0.38   66.3    28    3.1   183    13.2   829.1    0.00 
 125   16:20   0.33   67.0    27    4.1   160    12.5   829.0    0.00 
 125   16:30   0.32   67.0    28    3.9   201    17.2   829.0    0.00 
 125   16:40   0.26   66.5    29    3.3   190    10.2   829.0    0.00 
 125   16:50   0.25   66.6    29    4.9   173    14.8   829.0    0.00 
 125   17:00   0.06   65.2    30    3.6   175    16.8   829.1    0.00 
 125   17:10   0.06   64.7    32    2.8   278    10.2   829.2    0.00 
 125   17:20   0.05   64.3    31    2.4   304     8.6   829.2    0.00 
 125   17:30   0.05   63.9    33    1.8   255     7.3   829.2    0.00 
 125   17:40   0.05   63.6    33    3.8   216    12.3   829.2    0.00 
 125   17:50   0.03   63.5    33    4.0   203    17.3   829.3    0.00 
 125   18:00   0.03   63.3    33    2.6   207     8.0   829.3    0.00 
 125   18:10   0.02   62.8    35    2.3   172    10.6   829.4    0.00 
 125   18:20   0.01   62.5    34    3.3   174     7.6   829.4    0.00 
 125   18:30   0.01   62.5    34    3.6   186    11.9   829.6    0.00 
 125   18:40   0.01   62.4    34    3.5   182    12.9   829.5    0.00 
 125   18:50   0.01   62.3    35    3.5   187    10.4   829.7    0.00 
 125   19:00   0.01   62.2    34    4.3   180    12.0   829.7    0.00 
 125   19:10   0.00   62.1    34    3.1   188    10.0   829.8    0.00 
 125   19:20   0.00   61.6    35    2.3   177    14.4   830.0    0.00 
 125   19:30   0.00   61.5    36    2.9   193     8.7   830.1    0.00 
 125   19:40   0.00   61.4    35    2.7   190     6.8   830.3    0.00 
 125   19:50   0.00   61.0    37    1.4   237     7.2   830.3    0.00 
 125   20:00   0.00   60.2    40    0.4    97     3.0   830.5    0.00 
 125   20:10   0.00   59.2    41    1.3   308     5.6   830.7    0.00 
 125   20:20   0.00   59.7    35    2.3   298     9.1   830.8    0.00 
 125   20:30   0.00   59.4    34    1.8   303    10.4   831.1    0.00 
 125   20:40   0.00   58.9    33    3.0   305     9.5   831.2    0.00 
 125   20:50   0.00   58.6    34    2.3   316     6.6   831.4    0.00 

Return to Southwestern Research Station graphs page.


Western Regional Climate Center,wrcc@dri.edu